sensor_id;sensor_type;location;lat;lon;timestamp;temperature;humidity
21493;DHT22;10908;50.690;4.400;2023-04-30T00:00:59;7.60;85.10
21493;DHT22;10908;50.690;4.400;2023-04-30T00:03:25;7.60;85.40
21493;DHT22;10908;50.690;4.400;2023-04-30T00:05:51;7.60;85.50
21493;DHT22;10908;50.690;4.400;2023-04-30T00:08:17;7.70;85.60
21493;DHT22;10908;50.690;4.400;2023-04-30T00:10:42;7.70;85.20
21493;DHT22;10908;50.690;4.400;2023-04-30T00:13:08;7.60;85.00
21493;DHT22;10908;50.690;4.400;2023-04-30T00:15:35;7.60;85.00
21493;DHT22;10908;50.690;4.400;2023-04-30T00:18:03;7.60;85.00
21493;DHT22;10908;50.690;4.400;2023-04-30T00:20:29;7.50;85.20
21493;DHT22;10908;50.690;4.400;2023-04-30T00:22:54;7.50;85.80
21493;DHT22;10908;50.690;4.400;2023-04-30T00:25:20;7.60;85.90
21493;DHT22;10908;50.690;4.400;2023-04-30T00:27:49;7.60;85.60
21493;DHT22;10908;50.690;4.400;2023-04-30T00:30:14;7.50;85.00
21493;DHT22;10908;50.690;4.400;2023-04-30T00:32:40;7.50;85.10
21493;DHT22;10908;50.690;4.400;2023-04-30T00:35:06;7.60;85.20
21493;DHT22;10908;50.690;4.400;2023-04-30T00:37:32;7.50;84.90
21493;DHT22;10908;50.690;4.400;2023-04-30T00:39:58;7.40;85.00
21493;DHT22;10908;50.690;4.400;2023-04-30T00:42:24;7.40;85.10
21493;DHT22;10908;50.690;4.400;2023-04-30T00:44:49;7.40;85.10
21493;DHT22;10908;50.690;4.400;2023-04-30T00:47:15;7.40;85.00
21493;DHT22;10908;50.690;4.400;2023-04-30T00:49:41;7.30;84.90
21493;DHT22;10908;50.690;4.400;2023-04-30T00:52:07;7.30;85.20
21493;DHT22;10908;50.690;4.400;2023-04-30T00:54:32;7.30;85.40
21493;DHT22;10908;50.690;4.400;2023-04-30T00:56:58;7.40;85.30
21493;DHT22;10908;50.690;4.400;2023-04-30T00:59:24;7.50;85.10
21493;DHT22;10908;50.690;4.400;2023-04-30T01:01:50;7.40;85.10
21493;DHT22;10908;50.690;4.400;2023-04-30T01:04:16;7.30;85.00
21493;DHT22;10908;50.690;4.400;2023-04-30T01:06:42;7.40;85.30
21493;DHT22;10908;50.690;4.400;2023-04-30T01:09:08;7.50;85.40
21493;DHT22;10908;50.690;4.400;2023-04-30T01:17:11;7.70;86.00
21493;DHT22;10908;50.690;4.400;2023-04-30T01:19:46;7.70;85.80
21493;DHT22;10908;50.690;4.400;2023-04-30T01:22:34;7.70;85.90
21493;DHT22;10908;50.690;4.400;2023-04-30T01:28:14;7.90;85.60
21493;DHT22;10908;50.690;4.400;2023-04-30T01:30:42;7.90;86.00
21493;DHT22;10908;50.690;4.400;2023-04-30T01:33:11;7.90;86.30
21493;DHT22;10908;50.690;4.400;2023-04-30T01:36:14;7.90;86.20
21493;DHT22;10908;50.690;4.400;2023-04-30T01:50:02;7.60;86.50
21493;DHT22;10908;50.690;4.400;2023-04-30T01:52:51;7.60;86.70
21493;DHT22;10908;50.690;4.400;2023-04-30T01:55:22;7.60;86.70
21493;DHT22;10908;50.690;4.400;2023-04-30T01:58:00;7.60;86.80
21493;DHT22;10908;50.690;4.400;2023-04-30T02:00:26;7.70;86.70
21493;DHT22;10908;50.690;4.400;2023-04-30T02:02:53;7.60;86.70
21493;DHT22;10908;50.690;4.400;2023-04-30T02:05:20;7.60;86.70
21493;DHT22;10908;50.690;4.400;2023-04-30T02:07:49;7.60;86.70
21493;DHT22;10908;50.690;4.400;2023-04-30T02:10:20;7.60;86.60
21493;DHT22;10908;50.690;4.400;2023-04-30T02:12:47;7.60;86.90
21493;DHT22;10908;50.690;4.400;2023-04-30T02:15:13;7.50;87.20
21493;DHT22;10908;50.690;4.400;2023-04-30T02:17:39;7.50;87.40
21493;DHT22;10908;50.690;4.400;2023-04-30T02:20:06;7.60;87.40
21493;DHT22;10908;50.690;4.400;2023-04-30T02:22:32;7.70;87.20
21493;DHT22;10908;50.690;4.400;2023-04-30T02:24:58;7.70;86.70
21493;DHT22;10908;50.690;4.400;2023-04-30T02:27:25;7.60;86.40
21493;DHT22;10908;50.690;4.400;2023-04-30T02:29:51;7.70;86.50
21493;DHT22;10908;50.690;4.400;2023-04-30T02:32:17;7.60;86.40
21493;DHT22;10908;50.690;4.400;2023-04-30T02:34:43;7.70;86.40
21493;DHT22;10908;50.690;4.400;2023-04-30T02:37:09;7.60;86.70
21493;DHT22;10908;50.690;4.400;2023-04-30T02:39:35;7.60;87.00
21493;DHT22;10908;50.690;4.400;2023-04-30T02:42:00;7.50;87.10
21493;DHT22;10908;50.690;4.400;2023-04-30T02:44:27;7.40;87.40
21493;DHT22;10908;50.690;4.400;2023-04-30T02:46:53;7.30;87.60
21493;DHT22;10908;50.690;4.400;2023-04-30T02:49:18;7.30;87.80
21493;DHT22;10908;50.690;4.400;2023-04-30T02:51:44;7.40;88.00
21493;DHT22;10908;50.690;4.400;2023-04-30T02:54:10;7.50;88.00
21493;DHT22;10908;50.690;4.400;2023-04-30T02:56:35;7.60;87.90
21493;DHT22;10908;50.690;4.400;2023-04-30T02:59:03;7.70;87.60
21493;DHT22;10908;50.690;4.400;2023-04-30T03:01:28;7.70;87.30
21493;DHT22;10908;50.690;4.400;2023-04-30T03:03:54;7.70;87.20
21493;DHT22;10908;50.690;4.400;2023-04-30T03:06:20;7.70;86.90
21493;DHT22;10908;50.690;4.400;2023-04-30T03:08:46;7.60;86.80
21493;DHT22;10908;50.690;4.400;2023-04-30T03:11:13;7.50;86.90
21493;DHT22;10908;50.690;4.400;2023-04-30T03:13:39;7.60;87.00
21493;DHT22;10908;50.690;4.400;2023-04-30T03:16:05;7.60;86.80
21493;DHT22;10908;50.690;4.400;2023-04-30T03:18:31;7.70;86.60
21493;DHT22;10908;50.690;4.400;2023-04-30T03:20:57;7.40;86.60
21493;DHT22;10908;50.690;4.400;2023-04-30T03:23:25;7.30;87.20
21493;DHT22;10908;50.690;4.400;2023-04-30T03:25:51;7.30;87.60
21493;DHT22;10908;50.690;4.400;2023-04-30T03:28:17;7.30;87.70
21493;DHT22;10908;50.690;4.400;2023-04-30T03:30:43;7.30;87.90
21493;DHT22;10908;50.690;4.400;2023-04-30T03:33:09;7.40;87.90
21493;DHT22;10908;50.690;4.400;2023-04-30T03:35:35;7.40;87.90
21493;DHT22;10908;50.690;4.400;2023-04-30T03:38:01;7.30;87.90
21493;DHT22;10908;50.690;4.400;2023-04-30T03:40:27;7.20;88.10
21493;DHT22;10908;50.690;4.400;2023-04-30T03:42:52;7.20;88.20
21493;DHT22;10908;50.690;4.400;2023-04-30T03:45:18;7.20;88.30
21493;DHT22;10908;50.690;4.400;2023-04-30T03:47:45;7.20;88.50
21493;DHT22;10908;50.690;4.400;2023-04-30T03:50:10;7.30;88.50
21493;DHT22;10908;50.690;4.400;2023-04-30T03:52:37;7.30;88.30
21493;DHT22;10908;50.690;4.400;2023-04-30T03:55:03;7.30;88.20
21493;DHT22;10908;50.690;4.400;2023-04-30T03:57:29;7.30;88.20
21493;DHT22;10908;50.690;4.400;2023-04-30T03:59:54;7.40;88.10
21493;DHT22;10908;50.690;4.400;2023-04-30T04:02:21;7.40;88.00
21493;DHT22;10908;50.690;4.400;2023-04-30T04:04:49;7.30;87.80
21493;DHT22;10908;50.690;4.400;2023-04-30T04:07:17;7.40;87.90
21493;DHT22;10908;50.690;4.400;2023-04-30T04:09:43;7.40;87.90
21493;DHT22;10908;50.690;4.400;2023-04-30T04:12:09;7.30;87.70
21493;DHT22;10908;50.690;4.400;2023-04-30T04:14:35;7.30;87.80
21493;DHT22;10908;50.690;4.400;2023-04-30T04:17:01;7.30;88.00
21493;DHT22;10908;50.690;4.400;2023-04-30T04:19:31;7.30;88.20
21493;DHT22;10908;50.690;4.400;2023-04-30T04:21:56;7.30;88.20
21493;DHT22;10908;50.690;4.400;2023-04-30T04:24:26;7.40;88.20
21493;DHT22;10908;50.690;4.400;2023-04-30T04:26:51;7.50;87.90
21493;DHT22;10908;50.690;4.400;2023-04-30T04:29:18;7.50;87.80
21493;DHT22;10908;50.690;4.400;2023-04-30T04:31:44;7.60;87.60
21493;DHT22;10908;50.690;4.400;2023-04-30T04:34:10;7.70;87.20
21493;DHT22;10908;50.690;4.400;2023-04-30T04:36:35;7.70;86.90
21493;DHT22;10908;50.690;4.400;2023-04-30T04:39:02;7.80;86.70
21493;DHT22;10908;50.690;4.400;2023-04-30T04:41:32;7.70;86.20
21493;DHT22;10908;50.690;4.400;2023-04-30T04:43:58;7.70;86.30
21493;DHT22;10908;50.690;4.400;2023-04-30T04:46:25;7.70;86.50
21493;DHT22;10908;50.690;4.400;2023-04-30T04:48:51;7.80;86.60
21493;DHT22;10908;50.690;4.400;2023-04-30T04:51:17;7.80;86.30
21493;DHT22;10908;50.690;4.400;2023-04-30T04:53:43;7.90;86.30
21493;DHT22;10908;50.690;4.400;2023-04-30T04:56:09;8.00;86.00
21493;DHT22;10908;50.690;4.400;2023-04-30T04:58:35;7.90;85.90
21493;DHT22;10908;50.690;4.400;2023-04-30T05:01:00;8.00;85.90
21493;DHT22;10908;50.690;4.400;2023-04-30T05:03:29;8.10;85.80
21493;DHT22;10908;50.690;4.400;2023-04-30T05:05:55;8.00;85.60
21493;DHT22;10908;50.690;4.400;2023-04-30T05:08:21;8.20;85.80
21493;DHT22;10908;50.690;4.400;2023-04-30T05:10:47;8.20;85.60
21493;DHT22;10908;50.690;4.400;2023-04-30T05:13:13;8.40;85.50
21493;DHT22;10908;50.690;4.400;2023-04-30T05:15:38;8.20;85.20
21493;DHT22;10908;50.690;4.400;2023-04-30T05:18:04;8.30;85.40
21493;DHT22;10908;50.690;4.400;2023-04-30T05:20:30;8.20;85.60
21493;DHT22;10908;50.690;4.400;2023-04-30T05:22:55;8.10;85.80
21493;DHT22;10908;50.690;4.400;2023-04-30T05:25:21;8.20;86.30
21493;DHT22;10908;50.690;4.400;2023-04-30T05:27:47;8.20;86.10
21493;DHT22;10908;50.690;4.400;2023-04-30T05:30:13;8.20;86.30
21493;DHT22;10908;50.690;4.400;2023-04-30T05:32:43;8.20;86.40
21493;DHT22;10908;50.690;4.400;2023-04-30T05:35:15;8.20;86.60
21493;DHT22;10908;50.690;4.400;2023-04-30T05:37:42;8.10;86.50
21493;DHT22;10908;50.690;4.400;2023-04-30T05:40:08;8.00;86.80
21493;DHT22;10908;50.690;4.400;2023-04-30T05:42:34;7.90;87.30
21493;DHT22;10908;50.690;4.400;2023-04-30T05:45:01;8.00;87.60
21493;DHT22;10908;50.690;4.400;2023-04-30T05:47:27;8.10;87.80
21493;DHT22;10908;50.690;4.400;2023-04-30T05:49:53;8.10;87.70
21493;DHT22;10908;50.690;4.400;2023-04-30T05:52:18;8.00;87.40
21493;DHT22;10908;50.690;4.400;2023-04-30T05:54:44;8.00;87.60
21493;DHT22;10908;50.690;4.400;2023-04-30T05:57:11;8.00;87.90
21493;DHT22;10908;50.690;4.400;2023-04-30T05:59:37;8.10;88.20
21493;DHT22;10908;50.690;4.400;2023-04-30T06:02:05;8.20;88.20
21493;DHT22;10908;50.690;4.400;2023-04-30T06:04:31;8.30;88.10
21493;DHT22;10908;50.690;4.400;2023-04-30T06:06:57;8.30;87.70
21493;DHT22;10908;50.690;4.400;2023-04-30T06:09:22;8.30;87.50
21493;DHT22;10908;50.690;4.400;2023-04-30T06:11:48;8.40;87.70
21493;DHT22;10908;50.690;4.400;2023-04-30T06:14:17;8.50;87.40
21493;DHT22;10908;50.690;4.400;2023-04-30T06:16:43;8.70;87.30
21493;DHT22;10908;50.690;4.400;2023-04-30T06:19:10;8.70;86.80
21493;DHT22;10908;50.690;4.400;2023-04-30T06:21:36;8.80;86.70
21493;DHT22;10908;50.690;4.400;2023-04-30T06:24:04;8.70;86.70
21493;DHT22;10908;50.690;4.400;2023-04-30T06:26:31;8.80;86.40
21493;DHT22;10908;50.690;4.400;2023-04-30T06:28:57;8.80;86.50
21493;DHT22;10908;50.690;4.400;2023-04-30T06:31:23;8.80;86.60
21493;DHT22;10908;50.690;4.400;2023-04-30T06:33:49;8.90;86.60
21493;DHT22;10908;50.690;4.400;2023-04-30T06:36:15;9.00;86.40
21493;DHT22;10908;50.690;4.400;2023-04-30T06:38:41;9.00;85.80
21493;DHT22;10908;50.690;4.400;2023-04-30T06:41:08;9.00;85.80
21493;DHT22;10908;50.690;4.400;2023-04-30T06:43:34;9.00;85.70
21493;DHT22;10908;50.690;4.400;2023-04-30T06:45:59;9.00;85.70
21493;DHT22;10908;50.690;4.400;2023-04-30T06:48:25;9.10;86.00
21493;DHT22;10908;50.690;4.400;2023-04-30T06:50:51;9.20;86.00
21493;DHT22;10908;50.690;4.400;2023-04-30T06:53:17;9.40;85.80
21493;DHT22;10908;50.690;4.400;2023-04-30T06:55:44;9.30;85.50
21493;DHT22;10908;50.690;4.400;2023-04-30T06:58:11;9.30;85.70
21493;DHT22;10908;50.690;4.400;2023-04-30T07:00:37;9.50;85.60
21493;DHT22;10908;50.690;4.400;2023-04-30T07:03:02;9.70;85.50
21493;DHT22;10908;50.690;4.400;2023-04-30T07:05:29;9.90;85.20
21493;DHT22;10908;50.690;4.400;2023-04-30T07:07:59;10.00;84.70
21493;DHT22;10908;50.690;4.400;2023-04-30T07:10:26;10.00;84.00
21493;DHT22;10908;50.690;4.400;2023-04-30T07:12:54;10.10;84.30
21493;DHT22;10908;50.690;4.400;2023-04-30T07:15:19;10.40;83.90
21493;DHT22;10908;50.690;4.400;2023-04-30T07:17:46;10.50;83.80
21493;DHT22;10908;50.690;4.400;2023-04-30T07:20:12;10.40;83.30
21493;DHT22;10908;50.690;4.400;2023-04-30T07:22:41;10.40;83.40
21493;DHT22;10908;50.690;4.400;2023-04-30T07:25:11;10.50;83.30
21493;DHT22;10908;50.690;4.400;2023-04-30T07:27:37;10.50;83.00
21493;DHT22;10908;50.690;4.400;2023-04-30T07:30:05;10.70;82.90
21493;DHT22;10908;50.690;4.400;2023-04-30T07:32:31;10.80;82.60
21493;DHT22;10908;50.690;4.400;2023-04-30T07:34:57;10.90;82.70
21493;DHT22;10908;50.690;4.400;2023-04-30T07:37:22;11.10;82.20
21493;DHT22;10908;50.690;4.400;2023-04-30T07:39:48;11.20;81.10
21493;DHT22;10908;50.690;4.400;2023-04-30T07:42:14;11.40;81.50
21493;DHT22;10908;50.690;4.400;2023-04-30T07:44:39;11.70;81.40
21493;DHT22;10908;50.690;4.400;2023-04-30T07:47:06;11.80;80.50
21493;DHT22;10908;50.690;4.400;2023-04-30T07:49:32;11.90;79.90
21493;DHT22;10908;50.690;4.400;2023-04-30T07:51:58;12.00;79.50
21493;DHT22;10908;50.690;4.400;2023-04-30T07:54:25;12.20;79.20
21493;DHT22;10908;50.690;4.400;2023-04-30T07:56:51;12.30;78.40
21493;DHT22;10908;50.690;4.400;2023-04-30T07:59:16;12.00;78.70
21493;DHT22;10908;50.690;4.400;2023-04-30T08:01:42;12.00;79.50
21493;DHT22;10908;50.690;4.400;2023-04-30T08:04:08;11.90;79.40
21493;DHT22;10908;50.690;4.400;2023-04-30T08:06:34;12.10;79.10
21493;DHT22;10908;50.690;4.400;2023-04-30T08:08:59;12.20;78.30
21493;DHT22;10908;50.690;4.400;2023-04-30T08:11:26;12.40;78.00
21493;DHT22;10908;50.690;4.400;2023-04-30T08:13:51;12.50;77.60
21493;DHT22;10908;50.690;4.400;2023-04-30T08:16:17;12.70;77.70
21493;DHT22;10908;50.690;4.400;2023-04-30T08:18:43;12.80;76.80
21493;DHT22;10908;50.690;4.400;2023-04-30T08:21:11;12.90;76.60
21493;DHT22;10908;50.690;4.400;2023-04-30T08:23:37;12.90;75.70
21493;DHT22;10908;50.690;4.400;2023-04-30T08:26:03;13.00;75.10
21493;DHT22;10908;50.690;4.400;2023-04-30T08:28:29;12.90;75.30
21493;DHT22;10908;50.690;4.400;2023-04-30T08:30:54;12.70;74.40
21493;DHT22;10908;50.690;4.400;2023-04-30T08:33:20;12.80;75.40
21493;DHT22;10908;50.690;4.400;2023-04-30T08:35:47;12.90;76.00
21493;DHT22;10908;50.690;4.400;2023-04-30T08:38:13;13.00;75.30
21493;DHT22;10908;50.690;4.400;2023-04-30T08:40:39;13.10;74.30
21493;DHT22;10908;50.690;4.400;2023-04-30T08:43:08;13.20;71.70
21493;DHT22;10908;50.690;4.400;2023-04-30T08:45:36;13.20;72.20
21493;DHT22;10908;50.690;4.400;2023-04-30T08:48:03;13.40;73.90
21493;DHT22;10908;50.690;4.400;2023-04-30T08:50:30;13.50;72.80
21493;DHT22;10908;50.690;4.400;2023-04-30T08:53:00;13.40;71.80
21493;DHT22;10908;50.690;4.400;2023-04-30T08:55:26;13.50;71.90
21493;DHT22;10908;50.690;4.400;2023-04-30T08:57:52;13.60;71.80
21493;DHT22;10908;50.690;4.400;2023-04-30T09:00:18;13.70;70.80
21493;DHT22;10908;50.690;4.400;2023-04-30T09:02:44;13.80;69.40
21493;DHT22;10908;50.690;4.400;2023-04-30T09:05:13;13.80;69.40
21493;DHT22;10908;50.690;4.400;2023-04-30T09:07:43;13.90;69.10
21493;DHT22;10908;50.690;4.400;2023-04-30T09:10:14;14.00;69.20
21493;DHT22;10908;50.690;4.400;2023-04-30T09:12:42;14.20;69.00
21493;DHT22;10908;50.690;4.400;2023-04-30T09:15:11;14.30;68.30
21493;DHT22;10908;50.690;4.400;2023-04-30T09:17:37;14.30;66.80
21493;DHT22;10908;50.690;4.400;2023-04-30T09:20:13;14.40;66.90
21493;DHT22;10908;50.690;4.400;2023-04-30T09:22:40;14.40;67.40
21493;DHT22;10908;50.690;4.400;2023-04-30T09:25:07;14.40;66.50
21493;DHT22;10908;50.690;4.400;2023-04-30T09:27:33;14.50;67.80
21493;DHT22;10908;50.690;4.400;2023-04-30T09:29:59;14.60;65.80
21493;DHT22;10908;50.690;4.400;2023-04-30T09:32:25;14.60;64.70
21493;DHT22;10908;50.690;4.400;2023-04-30T09:34:51;14.70;66.20
21493;DHT22;10908;50.690;4.400;2023-04-30T09:37:17;14.80;64.70
21493;DHT22;10908;50.690;4.400;2023-04-30T09:39:52;14.90;61.00
21493;DHT22;10908;50.690;4.400;2023-04-30T09:42:18;14.80;62.90
21493;DHT22;10908;50.690;4.400;2023-04-30T09:44:44;15.00;63.80
21493;DHT22;10908;50.690;4.400;2023-04-30T09:47:11;15.00;61.90
21493;DHT22;10908;50.690;4.400;2023-04-30T09:49:47;15.10;61.60
21493;DHT22;10908;50.690;4.400;2023-04-30T09:52:16;15.00;62.40
21493;DHT22;10908;50.690;4.400;2023-04-30T09:54:43;15.00;61.10
21493;DHT22;10908;50.690;4.400;2023-04-30T09:57:12;15.10;61.00
21493;DHT22;10908;50.690;4.400;2023-04-30T09:59:45;15.20;60.70
21493;DHT22;10908;50.690;4.400;2023-04-30T10:02:14;15.30;61.00
21493;DHT22;10908;50.690;4.400;2023-04-30T10:04:46;15.30;59.90
21493;DHT22;10908;50.690;4.400;2023-04-30T10:07:19;15.30;59.10
21493;DHT22;10908;50.690;4.400;2023-04-30T10:10:05;15.50;59.50
21493;DHT22;10908;50.690;4.400;2023-04-30T10:12:46;15.50;58.50
21493;DHT22;10908;50.690;4.400;2023-04-30T10:15:29;15.30;55.60
21493;DHT22;10908;50.690;4.400;2023-04-30T10:18:04;15.20;57.10
21493;DHT22;10908;50.690;4.400;2023-04-30T10:20:31;15.20;56.30
21493;DHT22;10908;50.690;4.400;2023-04-30T10:22:59;15.10;58.60
21493;DHT22;10908;50.690;4.400;2023-04-30T10:25:26;15.10;59.60
21493;DHT22;10908;50.690;4.400;2023-04-30T10:27:53;15.20;58.80
21493;DHT22;10908;50.690;4.400;2023-04-30T10:30:21;15.40;58.90
21493;DHT22;10908;50.690;4.400;2023-04-30T10:33:14;15.50;58.00
21493;DHT22;10908;50.690;4.400;2023-04-30T10:36:03;15.50;57.10
21493;DHT22;10908;50.690;4.400;2023-04-30T10:38:31;15.70;58.50
21493;DHT22;10908;50.690;4.400;2023-04-30T10:40:59;15.70;58.10
21493;DHT22;10908;50.690;4.400;2023-04-30T10:43:26;15.60;57.60
21493;DHT22;10908;50.690;4.400;2023-04-30T10:45:56;15.70;56.30
21493;DHT22;10908;50.690;4.400;2023-04-30T10:48:23;15.90;55.90
21493;DHT22;10908;50.690;4.400;2023-04-30T10:50:56;16.00;56.20
21493;DHT22;10908;50.690;4.400;2023-04-30T10:53:23;16.10;55.80
21493;DHT22;10908;50.690;4.400;2023-04-30T10:55:57;16.20;57.30
21493;DHT22;10908;50.690;4.400;2023-04-30T10:58:32;16.10;55.00
21493;DHT22;10908;50.690;4.400;2023-04-30T11:01:12;15.90;54.70
21493;DHT22;10908;50.690;4.400;2023-04-30T11:03:40;16.10;57.00
21493;DHT22;10908;50.690;4.400;2023-04-30T11:06:13;16.20;58.10
21493;DHT22;10908;50.690;4.400;2023-04-30T11:08:43;16.20;52.00
21493;DHT22;10908;50.690;4.400;2023-04-30T11:11:10;16.00;52.50
21493;DHT22;10908;50.690;4.400;2023-04-30T11:13:41;16.10;54.60
21493;DHT22;10908;50.690;4.400;2023-04-30T11:16:08;16.20;56.40
21493;DHT22;10908;50.690;4.400;2023-04-30T11:18:43;16.40;54.80
21493;DHT22;10908;50.690;4.400;2023-04-30T11:21:09;16.10;52.50
21493;DHT22;10908;50.690;4.400;2023-04-30T11:23:35;16.10;56.20
21493;DHT22;10908;50.690;4.400;2023-04-30T11:26:01;16.30;52.30
21493;DHT22;10908;50.690;4.400;2023-04-30T11:28:28;16.20;52.30
21493;DHT22;10908;50.690;4.400;2023-04-30T11:30:57;16.30;53.10
21493;DHT22;10908;50.690;4.400;2023-04-30T11:33:25;16.40;52.50
21493;DHT22;10908;50.690;4.400;2023-04-30T11:35:52;16.40;53.30
21493;DHT22;10908;50.690;4.400;2023-04-30T11:38:25;16.50;53.60
21493;DHT22;10908;50.690;4.400;2023-04-30T11:40:51;16.30;52.10
21493;DHT22;10908;50.690;4.400;2023-04-30T11:43:29;15.90;52.70
21493;DHT22;10908;50.690;4.400;2023-04-30T11:46:10;16.10;53.00
21493;DHT22;10908;50.690;4.400;2023-04-30T11:48:37;16.30;52.40
21493;DHT22;10908;50.690;4.400;2023-04-30T11:51:23;16.40;54.00
21493;DHT22;10908;50.690;4.400;2023-04-30T11:53:51;16.40;53.80
21493;DHT22;10908;50.690;4.400;2023-04-30T11:56:21;16.30;51.70
21493;DHT22;10908;50.690;4.400;2023-04-30T11:58:49;16.20;51.70
21493;DHT22;10908;50.690;4.400;2023-04-30T12:01:16;16.40;52.30
21493;DHT22;10908;50.690;4.400;2023-04-30T12:03:47;16.60;52.70
21493;DHT22;10908;50.690;4.400;2023-04-30T12:06:21;16.80;52.70
21493;DHT22;10908;50.690;4.400;2023-04-30T12:08:47;16.90;52.30
21493;DHT22;10908;50.690;4.400;2023-04-30T12:11:24;17.00;51.90
21493;DHT22;10908;50.690;4.400;2023-04-30T12:13:52;17.00;50.40
21493;DHT22;10908;50.690;4.400;2023-04-30T12:16:17;17.10;49.60
21493;DHT22;10908;50.690;4.400;2023-04-30T12:18:44;17.10;50.00
21493;DHT22;10908;50.690;4.400;2023-04-30T12:21:10;17.00;48.60
21493;DHT22;10908;50.690;4.400;2023-04-30T12:23:36;16.90;49.60
21493;DHT22;10908;50.690;4.400;2023-04-30T12:26:02;17.10;50.30
21493;DHT22;10908;50.690;4.400;2023-04-30T12:28:28;17.30;50.10
21493;DHT22;10908;50.690;4.400;2023-04-30T12:30:53;17.20;48.40
21493;DHT22;10908;50.690;4.400;2023-04-30T12:33:20;17.10;47.20
21493;DHT22;10908;50.690;4.400;2023-04-30T12:35:45;17.20;46.70
21493;DHT22;10908;50.690;4.400;2023-04-30T12:38:15;17.30;49.10
21493;DHT22;10908;50.690;4.400;2023-04-30T12:40:46;17.60;50.40
21493;DHT22;10908;50.690;4.400;2023-04-30T12:43:15;17.50;48.20
21493;DHT22;10908;50.690;4.400;2023-04-30T12:45:52;17.60;49.10
21493;DHT22;10908;50.690;4.400;2023-04-30T12:48:19;17.70;48.60
21493;DHT22;10908;50.690;4.400;2023-04-30T12:50:59;17.90;49.30
21493;DHT22;10908;50.690;4.400;2023-04-30T12:53:29;17.80;47.00
21493;DHT22;10908;50.690;4.400;2023-04-30T12:56:12;17.90;46.80
21493;DHT22;10908;50.690;4.400;2023-04-30T12:58:43;18.10;45.80
21493;DHT22;10908;50.690;4.400;2023-04-30T13:01:19;18.30;46.20
21493;DHT22;10908;50.690;4.400;2023-04-30T13:03:45;18.30;45.60
21493;DHT22;10908;50.690;4.400;2023-04-30T13:06:11;18.10;47.40
21493;DHT22;10908;50.690;4.400;2023-04-30T13:08:37;18.00;46.40
21493;DHT22;10908;50.690;4.400;2023-04-30T13:11:03;17.90;44.50
21493;DHT22;10908;50.690;4.400;2023-04-30T13:13:29;17.80;44.10
21493;DHT22;10908;50.690;4.400;2023-04-30T13:15:55;17.80;47.60
21493;DHT22;10908;50.690;4.400;2023-04-30T13:18:21;17.90;47.10
21493;DHT22;10908;50.690;4.400;2023-04-30T13:20:47;18.00;47.20
21493;DHT22;10908;50.690;4.400;2023-04-30T13:23:12;17.90;45.70
21493;DHT22;10908;50.690;4.400;2023-04-30T13:25:39;18.00;48.20
21493;DHT22;10908;50.690;4.400;2023-04-30T13:28:06;18.10;46.40
21493;DHT22;10908;50.690;4.400;2023-04-30T13:30:31;17.80;45.40
21493;DHT22;10908;50.690;4.400;2023-04-30T13:32:58;17.90;48.80
21493;DHT22;10908;50.690;4.400;2023-04-30T13:35:24;18.10;47.90
21493;DHT22;10908;50.690;4.400;2023-04-30T13:37:50;18.00;45.30
21493;DHT22;10908;50.690;4.400;2023-04-30T13:40:17;17.70;46.70
21493;DHT22;10908;50.690;4.400;2023-04-30T13:42:45;17.70;46.40
21493;DHT22;10908;50.690;4.400;2023-04-30T13:45:11;17.80;46.20
21493;DHT22;10908;50.690;4.400;2023-04-30T13:47:37;17.80;45.20
21493;DHT22;10908;50.690;4.400;2023-04-30T13:50:04;17.90;46.90
21493;DHT22;10908;50.690;4.400;2023-04-30T13:52:30;18.00;45.40
21493;DHT22;10908;50.690;4.400;2023-04-30T13:54:55;17.80;45.50
21493;DHT22;10908;50.690;4.400;2023-04-30T13:57:22;17.90;45.90
21493;DHT22;10908;50.690;4.400;2023-04-30T13:59:48;17.80;46.50
21493;DHT22;10908;50.690;4.400;2023-04-30T14:02:14;18.10;47.20
21493;DHT22;10908;50.690;4.400;2023-04-30T14:04:40;18.10;46.20
21493;DHT22;10908;50.690;4.400;2023-04-30T14:07:06;18.10;47.70
21493;DHT22;10908;50.690;4.400;2023-04-30T14:09:32;18.30;46.20
21493;DHT22;10908;50.690;4.400;2023-04-30T14:11:57;18.30;45.90
21493;DHT22;10908;50.690;4.400;2023-04-30T14:14:27;18.30;46.10
21493;DHT22;10908;50.690;4.400;2023-04-30T14:16:53;18.40;45.70
21493;DHT22;10908;50.690;4.400;2023-04-30T14:19:20;18.50;46.30
21493;DHT22;10908;50.690;4.400;2023-04-30T14:21:46;18.70;47.30
21493;DHT22;10908;50.690;4.400;2023-04-30T14:24:12;18.50;45.00
21493;DHT22;10908;50.690;4.400;2023-04-30T14:26:38;18.30;45.00
21493;DHT22;10908;50.690;4.400;2023-04-30T14:29:07;18.20;44.50
21493;DHT22;10908;50.690;4.400;2023-04-30T14:31:33;18.30;46.60
21493;DHT22;10908;50.690;4.400;2023-04-30T14:33:58;18.40;44.60
21493;DHT22;10908;50.690;4.400;2023-04-30T14:36:24;18.40;47.00
21493;DHT22;10908;50.690;4.400;2023-04-30T14:38:52;18.40;46.70
21493;DHT22;10908;50.690;4.400;2023-04-30T14:41:17;18.70;46.00
21493;DHT22;10908;50.690;4.400;2023-04-30T14:43:43;18.70;46.20
21493;DHT22;10908;50.690;4.400;2023-04-30T14:46:09;18.90;45.30
21493;DHT22;10908;50.690;4.400;2023-04-30T14:48:36;18.90;46.60
21493;DHT22;10908;50.690;4.400;2023-04-30T14:51:02;19.00;46.50
21493;DHT22;10908;50.690;4.400;2023-04-30T14:53:28;18.90;45.80
21493;DHT22;10908;50.690;4.400;2023-04-30T14:55:53;19.10;44.90
21493;DHT22;10908;50.690;4.400;2023-04-30T14:58:19;19.20;44.70
21493;DHT22;10908;50.690;4.400;2023-04-30T15:00:45;18.90;44.30
21493;DHT22;10908;50.690;4.400;2023-04-30T15:03:13;18.90;43.60
21493;DHT22;10908;50.690;4.400;2023-04-30T15:05:40;18.80;44.50
21493;DHT22;10908;50.690;4.400;2023-04-30T15:08:05;18.70;43.30
21493;DHT22;10908;50.690;4.400;2023-04-30T15:10:31;18.80;44.40
21493;DHT22;10908;50.690;4.400;2023-04-30T15:12:57;18.50;43.60
21493;DHT22;10908;50.690;4.400;2023-04-30T15:15:23;18.30;44.70
21493;DHT22;10908;50.690;4.400;2023-04-30T15:17:54;18.60;45.90
21493;DHT22;10908;50.690;4.400;2023-04-30T15:20:20;18.70;44.50
21493;DHT22;10908;50.690;4.400;2023-04-30T15:22:46;18.80;44.20
21493;DHT22;10908;50.690;4.400;2023-04-30T15:25:12;18.80;42.70
21493;DHT22;10908;50.690;4.400;2023-04-30T15:27:38;18.60;43.70
21493;DHT22;10908;50.690;4.400;2023-04-30T15:30:06;18.70;45.00
21493;DHT22;10908;50.690;4.400;2023-04-30T15:32:32;18.60;42.80
21493;DHT22;10908;50.690;4.400;2023-04-30T15:34:57;18.70;45.80
21493;DHT22;10908;50.690;4.400;2023-04-30T15:37:23;18.60;43.40
21493;DHT22;10908;50.690;4.400;2023-04-30T15:39:49;18.50;43.90
21493;DHT22;10908;50.690;4.400;2023-04-30T15:55:05;18.40;44.20
21493;DHT22;10908;50.690;4.400;2023-04-30T15:57:31;18.40;45.20
21493;DHT22;10908;50.690;4.400;2023-04-30T15:59:57;18.50;47.40
21493;DHT22;10908;50.690;4.400;2023-04-30T16:02:22;18.80;45.70
21493;DHT22;10908;50.690;4.400;2023-04-30T16:04:48;18.90;43.80
21493;DHT22;10908;50.690;4.400;2023-04-30T16:07:13;19.00;44.60
21493;DHT22;10908;50.690;4.400;2023-04-30T16:09:39;19.00;44.20
21493;DHT22;10908;50.690;4.400;2023-04-30T16:12:10;18.70;42.70